sensor_id;sensor_type;location;lat;lon;timestamp;pressure;altitude;pressure_sealevel;temperature;humidity
49102;BME280;34913;47.520;19.186;2023-04-01T00:01:28;98495.91;;;10.16;94.43
49102;BME280;34913;47.520;19.186;2023-04-01T00:03:53;98504.97;;;10.05;95.78
49102;BME280;34913;47.520;19.186;2023-04-01T00:06:19;98496.31;;;9.95;96.14
49102;BME280;34913;47.520;19.186;2023-04-01T00:08:45;98502.94;;;9.91;97.11
49102;BME280;34913;47.520;19.186;2023-04-01T00:11:11;98502.22;;;9.81;97.45
49102;BME280;34913;47.520;19.186;2023-04-01T00:13:37;98505.16;;;9.77;98.21
49102;BME280;34913;47.520;19.186;2023-04-01T00:16:02;98505.00;;;9.79;97.94
49102;BME280;34913;47.520;19.186;2023-04-01T00:18:29;98496.72;;;9.74;99.02
49102;BME280;34913;47.520;19.186;2023-04-01T00:20:55;98501.00;;;9.67;99.21
49102;BME280;34913;47.520;19.186;2023-04-01T00:23:21;98494.84;;;9.66;99.33
49102;BME280;34913;47.520;19.186;2023-04-01T00:25:47;98495.75;;;9.49;100.00
49102;BME280;34913;47.520;19.186;2023-04-01T00:28:14;98505.31;;;9.42;100.00
49102;BME280;34913;47.520;19.186;2023-04-01T00:30:40;98500.56;;;9.28;100.00
49102;BME280;34913;47.520;19.186;2023-04-01T00:33:06;98502.56;;;9.26;100.00
49102;BME280;34913;47.520;19.186;2023-04-01T00:35:32;98497.94;;;9.28;100.00
49102;BME280;34913;47.520;19.186;2023-04-01T00:37:58;98509.56;;;9.35;100.00
49102;BME280;34913;47.520;19.186;2023-04-01T00:40:31;98501.78;;;9.33;100.00
49102;BME280;34913;47.520;19.186;2023-04-01T00:42:57;98497.63;;;9.31;100.00
49102;BME280;34913;47.520;19.186;2023-04-01T00:45:30;98499.28;;;9.32;100.00
49102;BME280;34913;47.520;19.186;2023-04-01T00:47:59;98500.25;;;9.31;100.00
49102;BME280;34913;47.520;19.186;2023-04-01T00:50:28;98496.22;;;9.18;100.00
49102;BME280;34913;47.520;19.186;2023-04-01T00:52:54;98491.84;;;9.09;100.00
49102;BME280;34913;47.520;19.186;2023-04-01T00:55:21;98483.69;;;9.03;100.00
49102;BME280;34913;47.520;19.186;2023-04-01T00:57:50;98490.66;;;9.04;100.00
49102;BME280;34913;47.520;19.186;2023-04-01T01:00:17;98482.53;;;9.05;100.00
49102;BME280;34913;47.520;19.186;2023-04-01T01:02:45;98487.97;;;9.21;100.00
49102;BME280;34913;47.520;19.186;2023-04-01T01:05:16;98490.81;;;9.02;100.00
49102;BME280;34913;47.520;19.186;2023-04-01T01:08:03;98485.56;;;8.92;100.00
49102;BME280;34913;47.520;19.186;2023-04-01T01:10:34;98477.28;;;8.87;100.00
49102;BME280;34913;47.520;19.186;2023-04-01T01:15:36;98484.63;;;8.93;100.00
49102;BME280;34913;47.520;19.186;2023-04-01T01:37:22;98483.84;;;9.53;100.00
49102;BME280;34913;47.520;19.186;2023-04-01T01:39:56;98485.22;;;9.57;99.86
49102;BME280;34913;47.520;19.186;2023-04-01T01:42:25;98476.22;;;9.50;100.00
49102;BME280;34913;47.520;19.186;2023-04-01T01:44:52;98480.16;;;9.46;100.00
49102;BME280;34913;47.520;19.186;2023-04-01T01:47:19;98474.56;;;9.49;100.00
49102;BME280;34913;47.520;19.186;2023-04-01T01:49:46;98468.59;;;9.47;100.00
49102;BME280;34913;47.520;19.186;2023-04-01T01:52:13;98472.72;;;9.41;100.00
49102;BME280;34913;47.520;19.186;2023-04-01T01:54:50;98473.81;;;9.39;100.00
49102;BME280;34913;47.520;19.186;2023-04-01T01:57:16;98468.50;;;9.31;100.00
49102;BME280;34913;47.520;19.186;2023-04-01T01:59:44;98474.44;;;9.25;100.00
49102;BME280;34913;47.520;19.186;2023-04-01T02:02:13;98476.69;;;9.19;100.00
49102;BME280;34913;47.520;19.186;2023-04-01T02:04:42;98472.63;;;9.07;100.00
49102;BME280;34913;47.520;19.186;2023-04-01T02:07:14;98478.91;;;9.06;100.00
49102;BME280;34913;47.520;19.186;2023-04-01T02:09:41;98477.47;;;9.12;100.00
49102;BME280;34913;47.520;19.186;2023-04-01T02:12:10;98473.94;;;9.03;100.00
49102;BME280;34913;47.520;19.186;2023-04-01T02:14:57;98479.91;;;9.05;100.00
49102;BME280;34913;47.520;19.186;2023-04-01T02:17:27;98470.13;;;9.06;100.00
49102;BME280;34913;47.520;19.186;2023-04-01T02:20:01;98461.53;;;9.04;100.00
49102;BME280;34913;47.520;19.186;2023-04-01T02:22:32;98473.28;;;9.01;100.00
49102;BME280;34913;47.520;19.186;2023-04-01T02:25:02;98460.66;;;8.95;100.00
49102;BME280;34913;47.520;19.186;2023-04-01T02:27:30;98461.47;;;8.95;100.00
49102;BME280;34913;47.520;19.186;2023-04-01T02:29:56;98453.06;;;9.00;100.00
49102;BME280;34913;47.520;19.186;2023-04-01T02:32:23;98455.91;;;9.07;100.00
49102;BME280;34913;47.520;19.186;2023-04-01T02:34:49;98453.44;;;9.05;100.00
49102;BME280;34913;47.520;19.186;2023-04-01T02:37:15;98451.63;;;9.06;100.00
49102;BME280;34913;47.520;19.186;2023-04-01T02:39:41;98448.81;;;9.07;100.00
49102;BME280;34913;47.520;19.186;2023-04-01T02:42:08;98452.28;;;9.08;100.00
49102;BME280;34913;47.520;19.186;2023-04-01T02:44:34;98452.94;;;9.02;100.00
49102;BME280;34913;47.520;19.186;2023-04-01T02:46:59;98456.81;;;9.15;100.00
49102;BME280;34913;47.520;19.186;2023-04-01T02:49:25;98452.50;;;9.14;100.00
49102;BME280;34913;47.520;19.186;2023-04-01T02:51:51;98454.44;;;9.04;100.00
49102;BME280;34913;47.520;19.186;2023-04-01T02:54:17;98449.28;;;9.03;100.00
49102;BME280;34913;47.520;19.186;2023-04-01T02:56:43;98444.34;;;9.08;100.00
49102;BME280;34913;47.520;19.186;2023-04-01T02:59:09;98452.72;;;8.95;100.00
49102;BME280;34913;47.520;19.186;2023-04-01T03:01:34;98451.00;;;8.86;100.00
49102;BME280;34913;47.520;19.186;2023-04-01T03:04:00;98455.84;;;8.73;100.00
49102;BME280;34913;47.520;19.186;2023-04-01T03:06:25;98463.25;;;8.69;100.00
49102;BME280;34913;47.520;19.186;2023-04-01T03:08:51;98456.91;;;8.62;100.00
49102;BME280;34913;47.520;19.186;2023-04-01T03:11:16;98460.59;;;8.51;100.00
49102;BME280;34913;47.520;19.186;2023-04-01T03:13:42;98463.09;;;8.53;100.00
49102;BME280;34913;47.520;19.186;2023-04-01T03:16:07;98464.91;;;8.52;100.00
49102;BME280;34913;47.520;19.186;2023-04-01T03:18:33;98467.94;;;8.57;100.00
49102;BME280;34913;47.520;19.186;2023-04-01T03:21:12;98459.16;;;8.57;100.00
49102;BME280;34913;47.520;19.186;2023-04-01T03:23:38;98451.22;;;8.57;100.00
49102;BME280;34913;47.520;19.186;2023-04-01T03:26:03;98442.56;;;8.47;100.00
49102;BME280;34913;47.520;19.186;2023-04-01T03:28:29;98455.91;;;8.45;100.00
49102;BME280;34913;47.520;19.186;2023-04-01T03:30:54;98457.28;;;8.49;100.00
49102;BME280;34913;47.520;19.186;2023-04-01T03:33:20;98458.66;;;8.53;100.00
49102;BME280;34913;47.520;19.186;2023-04-01T03:35:45;98460.75;;;8.50;100.00
49102;BME280;34913;47.520;19.186;2023-04-01T03:38:11;98473.91;;;8.42;100.00
49102;BME280;34913;47.520;19.186;2023-04-01T03:40:36;98481.88;;;8.32;100.00
49102;BME280;34913;47.520;19.186;2023-04-01T03:43:03;98486.09;;;8.25;100.00
49102;BME280;34913;47.520;19.186;2023-04-01T03:45:33;98489.72;;;8.24;100.00
49102;BME280;34913;47.520;19.186;2023-04-01T03:47:58;98486.25;;;8.23;100.00
49102;BME280;34913;47.520;19.186;2023-04-01T03:50:24;98489.31;;;8.19;100.00
49102;BME280;34913;47.520;19.186;2023-04-01T03:52:50;98487.31;;;8.03;100.00
49102;BME280;34913;47.520;19.186;2023-04-01T03:55:16;98494.31;;;7.94;100.00
49102;BME280;34913;47.520;19.186;2023-04-01T03:57:43;98490.84;;;7.94;100.00
49102;BME280;34913;47.520;19.186;2023-04-01T04:00:09;98491.16;;;7.91;100.00
49102;BME280;34913;47.520;19.186;2023-04-01T04:02:35;98491.28;;;7.89;100.00
49102;BME280;34913;47.520;19.186;2023-04-01T04:05:01;98493.91;;;7.99;100.00
49102;BME280;34913;47.520;19.186;2023-04-01T04:07:26;98486.63;;;8.01;100.00
49102;BME280;34913;47.520;19.186;2023-04-01T04:09:52;98494.72;;;7.99;100.00
49102;BME280;34913;47.520;19.186;2023-04-01T04:12:17;98494.00;;;7.97;100.00
49102;BME280;34913;47.520;19.186;2023-04-01T04:14:42;98499.59;;;7.94;100.00
49102;BME280;34913;47.520;19.186;2023-04-01T04:17:10;98493.50;;;7.94;100.00
49102;BME280;34913;47.520;19.186;2023-04-01T04:19:41;98493.91;;;7.99;100.00
49102;BME280;34913;47.520;19.186;2023-04-01T04:22:06;98492.91;;;8.00;100.00
49102;BME280;34913;47.520;19.186;2023-04-01T04:24:34;98503.72;;;8.06;100.00
49102;BME280;34913;47.520;19.186;2023-04-01T04:26:59;98495.81;;;7.97;100.00
49102;BME280;34913;47.520;19.186;2023-04-01T04:29:25;98495.16;;;7.95;100.00
49102;BME280;34913;47.520;19.186;2023-04-01T04:31:50;98500.25;;;8.06;100.00
49102;BME280;34913;47.520;19.186;2023-04-01T04:34:16;98493.44;;;8.03;100.00
49102;BME280;34913;47.520;19.186;2023-04-01T04:36:41;98487.47;;;8.01;100.00
49102;BME280;34913;47.520;19.186;2023-04-01T04:39:07;98491.78;;;8.02;100.00
49102;BME280;34913;47.520;19.186;2023-04-01T04:41:32;98490.69;;;7.95;100.00
49102;BME280;34913;47.520;19.186;2023-04-01T04:43:57;98487.38;;;7.93;100.00
49102;BME280;34913;47.520;19.186;2023-04-01T04:46:24;98473.63;;;7.90;100.00
49102;BME280;34913;47.520;19.186;2023-04-01T04:48:50;98483.66;;;7.86;100.00
49102;BME280;34913;47.520;19.186;2023-04-01T04:51:16;98478.78;;;7.81;100.00
49102;BME280;34913;47.520;19.186;2023-04-01T04:53:43;98478.94;;;7.80;100.00
49102;BME280;34913;47.520;19.186;2023-04-01T04:56:09;98482.88;;;7.76;100.00
49102;BME280;34913;47.520;19.186;2023-04-01T04:58:35;98474.16;;;7.66;100.00
49102;BME280;34913;47.520;19.186;2023-04-01T05:01:19;98481.22;;;7.75;100.00
49102;BME280;34913;47.520;19.186;2023-04-01T05:03:45;98484.97;;;7.72;100.00
49102;BME280;34913;47.520;19.186;2023-04-01T05:06:13;98484.28;;;7.70;100.00
49102;BME280;34913;47.520;19.186;2023-04-01T05:08:39;98487.19;;;7.77;100.00
49102;BME280;34913;47.520;19.186;2023-04-01T05:11:07;98489.09;;;7.84;100.00
49102;BME280;34913;47.520;19.186;2023-04-01T05:13:37;98488.94;;;7.86;100.00
49102;BME280;34913;47.520;19.186;2023-04-01T05:16:02;98487.53;;;7.92;100.00
49102;BME280;34913;47.520;19.186;2023-04-01T05:18:28;98493.19;;;7.97;100.00
49102;BME280;34913;47.520;19.186;2023-04-01T05:20:54;98486.34;;;8.04;100.00
49102;BME280;34913;47.520;19.186;2023-04-01T05:23:21;98485.31;;;8.15;100.00
49102;BME280;34913;47.520;19.186;2023-04-01T05:25:48;98486.91;;;8.25;100.00
49102;BME280;34913;47.520;19.186;2023-04-01T05:28:15;98492.88;;;8.27;100.00
49102;BME280;34913;47.520;19.186;2023-04-01T05:30:41;98493.00;;;8.35;100.00
49102;BME280;34913;47.520;19.186;2023-04-01T05:33:08;98501.16;;;8.42;100.00
49102;BME280;34913;47.520;19.186;2023-04-01T05:35:33;98487.75;;;8.53;100.00
49102;BME280;34913;47.520;19.186;2023-04-01T05:37:59;98489.75;;;8.59;100.00
49102;BME280;34913;47.520;19.186;2023-04-01T05:40:25;98498.66;;;8.76;100.00
49102;BME280;34913;47.520;19.186;2023-04-01T05:42:50;98487.72;;;8.89;100.00
49102;BME280;34913;47.520;19.186;2023-04-01T05:45:16;98494.19;;;9.12;100.00
49102;BME280;34913;47.520;19.186;2023-04-01T05:47:41;98492.84;;;9.34;99.01
49102;BME280;34913;47.520;19.186;2023-04-01T05:50:09;98488.97;;;9.55;95.99
49102;BME280;34913;47.520;19.186;2023-04-01T05:52:35;98480.81;;;9.74;95.33
49102;BME280;34913;47.520;19.186;2023-04-01T05:55:01;98490.16;;;9.94;93.06
49102;BME280;34913;47.520;19.186;2023-04-01T05:57:26;98487.94;;;10.16;87.46
49102;BME280;34913;47.520;19.186;2023-04-01T05:59:52;98489.19;;;10.38;86.72
49102;BME280;34913;47.520;19.186;2023-04-01T06:02:18;98490.69;;;10.48;86.66
49102;BME280;34913;47.520;19.186;2023-04-01T06:04:44;98491.75;;;10.80;82.94
49102;BME280;34913;47.520;19.186;2023-04-01T06:07:17;98488.91;;;10.98;80.47
49102;BME280;34913;47.520;19.186;2023-04-01T06:09:44;98490.06;;;11.19;79.07
49102;BME280;34913;47.520;19.186;2023-04-01T06:12:39;98480.25;;;11.36;79.25
49102;BME280;34913;47.520;19.186;2023-04-01T06:15:13;98493.69;;;11.43;77.26
49102;BME280;34913;47.520;19.186;2023-04-01T06:18:00;98497.16;;;11.60;76.07
49102;BME280;34913;47.520;19.186;2023-04-01T06:23:45;98494.34;;;11.61;74.80
49102;BME280;34913;47.520;19.186;2023-04-01T06:29:13;98483.75;;;11.37;75.91
49102;BME280;34913;47.520;19.186;2023-04-01T06:31:51;98488.56;;;11.41;74.58
49102;BME280;34913;47.520;19.186;2023-04-01T06:34:49;98492.03;;;11.50;74.77
49102;BME280;34913;47.520;19.186;2023-04-01T06:56:09;98500.56;;;12.32;71.09
49102;BME280;34913;47.520;19.186;2023-04-01T06:58:43;98505.91;;;12.55;69.72
49102;BME280;34913;47.520;19.186;2023-04-01T07:01:14;98501.75;;;12.61;70.00
49102;BME280;34913;47.520;19.186;2023-04-01T07:03:51;98504.09;;;12.78;68.07
49102;BME280;34913;47.520;19.186;2023-04-01T07:06:47;98492.69;;;12.70;69.75
49102;BME280;34913;47.520;19.186;2023-04-01T07:09:19;98493.47;;;12.78;69.68
49102;BME280;34913;47.520;19.186;2023-04-01T07:11:45;98488.81;;;12.80;68.27
49102;BME280;34913;47.520;19.186;2023-04-01T07:16:44;98495.97;;;13.18;67.52
49102;BME280;34913;47.520;19.186;2023-04-01T07:21:49;98496.88;;;13.33;67.63
49102;BME280;34913;47.520;19.186;2023-04-01T07:24:22;98498.28;;;13.58;65.04
49102;BME280;34913;47.520;19.186;2023-04-01T07:26:53;98492.22;;;13.64;64.82
49102;BME280;34913;47.520;19.186;2023-04-01T07:29:19;98489.47;;;13.73;63.78
49102;BME280;34913;47.520;19.186;2023-04-01T07:34:25;98492.31;;;14.15;64.65
49102;BME280;34913;47.520;19.186;2023-04-01T07:37:08;98491.28;;;14.46;62.90
49102;BME280;34913;47.520;19.186;2023-04-01T07:45:20;98492.38;;;14.94;59.84
49102;BME280;34913;47.520;19.186;2023-04-01T07:50:39;98493.00;;;15.18;59.47
49102;BME280;34913;47.520;19.186;2023-04-01T07:53:38;98496.69;;;15.17;57.53
49102;BME280;34913;47.520;19.186;2023-04-01T07:59:05;98495.94;;;14.80;58.14
49102;BME280;34913;47.520;19.186;2023-04-01T08:07:25;98498.56;;;14.22;60.32
49102;BME280;34913;47.520;19.186;2023-04-01T08:23:33;98495.59;;;14.32;59.21
49102;BME280;34913;47.520;19.186;2023-04-01T08:26:18;98500.03;;;14.25;60.85
49102;BME280;34913;47.520;19.186;2023-04-01T08:29:33;98502.50;;;14.27;59.84
49102;BME280;34913;47.520;19.186;2023-04-01T08:31:55;98499.66;;;14.13;59.78
49102;BME280;34913;47.520;19.186;2023-04-01T08:34:25;98502.53;;;13.97;59.77
49102;BME280;34913;47.520;19.186;2023-04-01T08:37:11;98495.50;;;14.25;59.77
49102;BME280;34913;47.520;19.186;2023-04-01T08:39:44;98509.16;;;14.16;60.46
49102;BME280;34913;47.520;19.186;2023-04-01T08:42:30;98500.13;;;14.02;59.18
49102;BME280;34913;47.520;19.186;2023-04-01T08:45:21;98508.13;;;14.17;60.84
49102;BME280;34913;47.520;19.186;2023-04-01T08:55:41;98500.50;;;14.65;58.63
49102;BME280;34913;47.520;19.186;2023-04-01T09:00:53;98500.94;;;14.47;58.44
49102;BME280;34913;47.520;19.186;2023-04-01T09:03:48;98503.28;;;14.57;58.93
49102;BME280;34913;47.520;19.186;2023-04-01T09:06:47;98503.41;;;14.34;58.03
49102;BME280;34913;47.520;19.186;2023-04-01T09:23:54;98514.84;;;14.78;57.38
49102;BME280;34913;47.520;19.186;2023-04-01T09:40:47;98511.03;;;14.51;57.22
49102;BME280;34913;47.520;19.186;2023-04-01T09:43:22;98503.09;;;14.43;58.69
49102;BME280;34913;47.520;19.186;2023-04-01T09:48:43;98501.06;;;14.09;60.11
49102;BME280;34913;47.520;19.186;2023-04-01T10:00:29;98508.53;;;13.99;59.17
49102;BME280;34913;47.520;19.186;2023-04-01T10:03:25;98508.78;;;14.04;60.05
49102;BME280;34913;47.520;19.186;2023-04-01T10:26:01;98528.75;;;13.93;60.80
49102;BME280;34913;47.520;19.186;2023-04-01T10:45:50;98531.69;;;13.31;62.53
49102;BME280;34913;47.520;19.186;2023-04-01T10:54:49;98527.06;;;13.25;64.39
49102;BME280;34913;47.520;19.186;2023-04-01T11:03:46;98532.81;;;13.37;64.50
49102;BME280;34913;47.520;19.186;2023-04-01T11:06:37;98524.13;;;13.43;64.77
49102;BME280;34913;47.520;19.186;2023-04-01T11:28:16;98505.47;;;14.68;57.97
49102;BME280;34913;47.520;19.186;2023-04-01T11:31:04;98507.81;;;14.56;59.43
49102;BME280;34913;47.520;19.186;2023-04-01T11:42:37;98517.59;;;13.60;61.77
49102;BME280;34913;47.520;19.186;2023-04-01T12:04:46;98524.69;;;13.07;68.01
49102;BME280;34913;47.520;19.186;2023-04-01T12:08:04;98525.16;;;13.11;67.66
49102;BME280;34913;47.520;19.186;2023-04-01T12:10:39;98528.78;;;13.18;67.52
49102;BME280;34913;47.520;19.186;2023-04-01T12:13:18;98519.94;;;13.40;65.25
49102;BME280;34913;47.520;19.186;2023-04-01T12:16:44;98526.69;;;13.51;64.11
49102;BME280;34913;47.520;19.186;2023-04-01T12:19:04;98526.44;;;13.61;62.20
49102;BME280;34913;47.520;19.186;2023-04-01T12:21:38;98527.19;;;13.69;62.62
49102;BME280;34913;47.520;19.186;2023-04-01T12:24:38;98523.69;;;13.84;61.81
49102;BME280;34913;47.520;19.186;2023-04-01T12:27:13;98524.69;;;13.97;61.37
49102;BME280;34913;47.520;19.186;2023-04-01T12:35:20;98522.44;;;14.45;58.74
49102;BME280;34913;47.520;19.186;2023-04-01T12:43:32;98525.28;;;14.59;57.91
49102;BME280;34913;47.520;19.186;2023-04-01T13:02:39;98510.28;;;15.71;52.08
49102;BME280;34913;47.520;19.186;2023-04-01T13:16:08;98496.69;;;16.01;52.54
49102;BME280;34913;47.520;19.186;2023-04-01T13:37:08;98503.50;;;16.10;48.96
49102;BME280;34913;47.520;19.186;2023-04-01T13:50:21;98504.59;;;16.22;47.76
49102;BME280;34913;47.520;19.186;2023-04-01T13:58:38;98499.59;;;16.60;47.98
49102;BME280;34913;47.520;19.186;2023-04-01T14:03:51;98504.53;;;16.63;47.92
49102;BME280;34913;47.520;19.186;2023-04-01T14:09:41;98511.69;;;16.43;49.03
49102;BME280;34913;47.520;19.186;2023-04-01T14:15:34;98512.47;;;16.30;47.99
49102;BME280;34913;47.520;19.186;2023-04-01T14:18:17;98515.13;;;16.24;49.01
49102;BME280;34913;47.520;19.186;2023-04-01T14:29:26;98515.66;;;16.06;49.50
49102;BME280;34913;47.520;19.186;2023-04-01T14:37:40;98514.19;;;15.69;50.10
49102;BME280;34913;47.520;19.186;2023-04-01T14:51:31;98513.38;;;15.47;52.08
49102;BME280;34913;47.520;19.186;2023-04-01T14:54:00;98506.53;;;15.38;52.23
49102;BME280;34913;47.520;19.186;2023-04-01T14:56:44;98509.81;;;15.40;52.17
49102;BME280;34913;47.520;19.186;2023-04-01T15:05:15;98509.78;;;15.33;51.65
49102;BME280;34913;47.520;19.186;2023-04-01T15:13:15;98509.50;;;15.49;52.21
49102;BME280;34913;47.520;19.186;2023-04-01T15:18:56;98513.50;;;15.39;51.17
49102;BME280;34913;47.520;19.186;2023-04-01T15:21:53;98509.13;;;15.03;52.46
49102;BME280;34913;47.520;19.186;2023-04-01T15:28:00;98519.22;;;14.86;52.41
49102;BME280;34913;47.520;19.186;2023-04-01T15:38:52;98535.88;;;14.37;52.55
49102;BME280;34913;47.520;19.186;2023-04-01T15:41:38;98533.47;;;14.42;52.83
49102;BME280;34913;47.520;19.186;2023-04-01T15:44:44;98532.78;;;14.48;52.74
49102;BME280;34913;47.520;19.186;2023-04-01T15:47:37;98531.75;;;14.35;51.87
49102;BME280;34913;47.520;19.186;2023-04-01T15:53:24;98543.72;;;14.54;51.57
49102;BME280;34913;47.520;19.186;2023-04-01T16:03:55;98543.63;;;14.32;53.34
49102;BME280;34913;47.520;19.186;2023-04-01T16:12:10;98547.78;;;14.20;54.23
49102;BME280;34913;47.520;19.186;2023-04-01T16:23:02;98554.41;;;14.24;54.55
49102;BME280;34913;47.520;19.186;2023-04-01T16:33:37;98559.56;;;14.11;54.10
49102;BME280;34913;47.520;19.186;2023-04-01T16:38:46;98569.84;;;14.14;54.51
49102;BME280;34913;47.520;19.186;2023-04-01T16:41:32;98579.53;;;14.15;54.39
49102;BME280;34913;47.520;19.186;2023-04-01T16:44:20;98576.13;;;14.06;54.89
49102;BME280;34913;47.520;19.186;2023-04-01T16:46:52;98578.97;;;14.05;55.31
49102;BME280;34913;47.520;19.186;2023-04-01T16:49:42;98573.72;;;14.11;55.06
49102;BME280;34913;47.520;19.186;2023-04-01T16:57:43;98583.31;;;13.91;54.73
49102;BME280;34913;47.520;19.186;2023-04-01T17:00:49;98577.97;;;13.91;55.46
49102;BME280;34913;47.520;19.186;2023-04-01T17:03:32;98577.69;;;13.86;55.84
49102;BME280;34913;47.520;19.186;2023-04-01T17:14:50;98591.59;;;13.58;56.34
49102;BME280;34913;47.520;19.186;2023-04-01T17:17:42;98596.16;;;13.50;57.08
49102;BME280;34913;47.520;19.186;2023-04-01T17:28:36;98606.13;;;13.33;56.19
49102;BME280;34913;47.520;19.186;2023-04-01T17:33:47;98611.34;;;13.26;57.38
49102;BME280;34913;47.520;19.186;2023-04-01T17:36:20;98611.53;;;13.17;56.99
49102;BME280;34913;47.520;19.186;2023-04-01T17:39:14;98614.91;;;13.10;57.58
49102;BME280;34913;47.520;19.186;2023-04-01T17:49:49;98618.75;;;13.08;57.06
49102;BME280;34913;47.520;19.186;2023-04-01T17:52:37;98617.97;;;12.99;57.22
49102;BME280;34913;47.520;19.186;2023-04-01T17:59:17;98624.44;;;13.05;56.39
49102;BME280;34913;47.520;19.186;2023-04-01T18:01:19;98624.50;;;12.97;57.44
49102;BME280;34913;47.520;19.186;2023-04-01T18:04:21;98629.34;;;12.93;57.60
49102;BME280;34913;47.520;19.186;2023-04-01T18:17:52;98649.47;;;12.65;57.94
49102;BME280;34913;47.520;19.186;2023-04-01T18:20:22;98656.47;;;12.57;59.06
49102;BME280;34913;47.520;19.186;2023-04-01T18:23:02;98658.16;;;12.50;59.41
49102;BME280;34913;47.520;19.186;2023-04-01T18:31:04;98672.88;;;12.69;58.53
49102;BME280;34913;47.520;19.186;2023-04-01T18:34:02;98675.56;;;12.61;58.76
49102;BME280;34913;47.520;19.186;2023-04-01T18:44:56;98673.78;;;12.45;59.77
49102;BME280;34913;47.520;19.186;2023-04-01T18:47:54;98676.00;;;12.34;59.75
49102;BME280;34913;47.520;19.186;2023-04-01T18:50:24;98676.47;;;12.37;59.80
49102;BME280;34913;47.520;19.186;2023-04-01T18:52:58;98683.19;;;12.25;61.03
49102;BME280;34913;47.520;19.186;2023-04-01T18:55:36;98678.34;;;12.20;60.92
49102;BME280;34913;47.520;19.186;2023-04-01T19:01:15;98681.03;;;12.04;61.97
49102;BME280;34913;47.520;19.186;2023-04-01T19:03:52;98681.22;;;11.94;62.62
49102;BME280;34913;47.520;19.186;2023-04-01T19:06:27;98674.91;;;11.95;61.99
49102;BME280;34913;47.520;19.186;2023-04-01T19:08:54;98690.34;;;12.24;60.46
49102;BME280;34913;47.520;19.186;2023-04-01T19:11:26;98678.53;;;12.19;61.05
49102;BME280;34913;47.520;19.186;2023-04-01T19:14:12;98688.50;;;12.25;60.61
49102;BME280;34913;47.520;19.186;2023-04-01T19:27:37;98689.88;;;11.88;62.78
49102;BME280;34913;47.520;19.186;2023-04-01T19:38:31;98705.84;;;11.13;66.88
49102;BME280;34913;47.520;19.186;2023-04-01T19:46:44;98715.88;;;10.85;68.27
49102;BME280;34913;47.520;19.186;2023-04-01T19:52:12;98721.44;;;10.74;68.79
49102;BME280;34913;47.520;19.186;2023-04-01T20:05:53;98717.47;;;10.36;71.06
49102;BME280;34913;47.520;19.186;2023-04-01T20:19:53;98726.28;;;10.01;72.80
49102;BME280;34913;47.520;19.186;2023-04-01T20:26:12;98728.09;;;10.00;72.59
49102;BME280;34913;47.520;19.186;2023-04-01T20:33:33;98727.91;;;9.76;73.91
49102;BME280;34913;47.520;19.186;2023-04-01T20:36:23;98734.72;;;9.78;73.38
49102;BME280;34913;47.520;19.186;2023-04-01T20:45:10;98751.00;;;9.66;74.38
49102;BME280;34913;47.520;19.186;2023-04-01T20:50:39;98747.28;;;9.59;75.25
49102;BME280;34913;47.520;19.186;2023-04-01T20:53:29;98748.44;;;9.56;75.03
49102;BME280;34913;47.520;19.186;2023-04-01T20:56:14;98751.69;;;9.50;76.27
49102;BME280;34913;47.520;19.186;2023-04-01T21:01:47;98751.59;;;9.42;76.87
49102;BME280;34913;47.520;19.186;2023-04-01T21:05:00;98754.41;;;9.40;77.06
49102;BME280;34913;47.520;19.186;2023-04-01T21:10:29;98760.72;;;9.30;77.01
49102;BME280;34913;47.520;19.186;2023-04-01T21:34:50;98770.19;;;9.05;81.19
49102;BME280;34913;47.520;19.186;2023-04-01T22:07:20;98783.97;;;9.54;77.48
49102;BME280;34913;47.520;19.186;2023-04-01T22:12:54;98789.91;;;9.83;75.09
49102;BME280;34913;47.520;19.186;2023-04-01T22:18:38;98785.28;;;10.03;73.56
49102;BME280;34913;47.520;19.186;2023-04-01T22:21:07;98786.88;;;10.14;72.47
49102;BME280;34913;47.520;19.186;2023-04-01T22:23:44;98788.03;;;10.11;71.85
49102;BME280;34913;47.520;19.186;2023-04-01T22:29:25;98796.88;;;10.20;71.94
49102;BME280;34913;47.520;19.186;2023-04-01T22:31:59;98796.25;;;10.26;71.09
49102;BME280;34913;47.520;19.186;2023-04-01T22:34:42;98794.16;;;10.12;72.03
49102;BME280;34913;47.520;19.186;2023-04-01T22:37:49;98805.78;;;10.19;71.28
49102;BME280;34913;47.520;19.186;2023-04-01T22:40:23;98803.53;;;10.24;71.18
49102;BME280;34913;47.520;19.186;2023-04-01T22:43:00;98801.41;;;10.10;71.68
49102;BME280;34913;47.520;19.186;2023-04-01T22:51:18;98813.16;;;10.07;72.24
49102;BME280;34913;47.520;19.186;2023-04-01T22:57:14;98826.94;;;9.93;72.73
49102;BME280;34913;47.520;19.186;2023-04-01T23:00:00;98823.78;;;9.89;72.60
49102;BME280;34913;47.520;19.186;2023-04-01T23:02:37;98829.44;;;9.76;73.25
49102;BME280;34913;47.520;19.186;2023-04-01T23:05:04;98834.22;;;9.73;73.63
49102;BME280;34913;47.520;19.186;2023-04-01T23:07:59;98835.47;;;9.87;73.07
49102;BME280;34913;47.520;19.186;2023-04-01T23:13:04;98842.56;;;9.96;72.96
49102;BME280;34913;47.520;19.186;2023-04-01T23:15:36;98846.25;;;9.85;73.23
49102;BME280;34913;47.520;19.186;2023-04-01T23:18:30;98847.22;;;9.84;73.68
49102;BME280;34913;47.520;19.186;2023-04-01T23:21:18;98849.63;;;9.77;74.12
49102;BME280;34913;47.520;19.186;2023-04-01T23:24:03;98854.69;;;9.71;74.36
49102;BME280;34913;47.520;19.186;2023-04-01T23:26:43;98857.13;;;9.64;74.52
49102;BME280;34913;47.520;19.186;2023-04-01T23:29:15;98853.19;;;9.68;74.73
49102;BME280;34913;47.520;19.186;2023-04-01T23:31:43;98851.88;;;9.55;75.05
49102;BME280;34913;47.520;19.186;2023-04-01T23:36:49;98863.16;;;9.57;75.01
49102;BME280;34913;47.520;19.186;2023-04-01T23:39:38;98869.56;;;9.64;75.38
49102;BME280;34913;47.520;19.186;2023-04-01T23:44:53;98864.47;;;9.70;74.40